createdAt,value
2018-07-19T00:00:58.905Z,71.53
2018-07-19T00:03:27.697Z,70.73
2018-07-19T00:05:56.452Z,70.29
2018-07-19T00:10:52.848Z,71.99
2018-07-19T00:13:22.071Z,71.49
2018-07-19T00:15:50.801Z,71.54
2018-07-19T00:18:20.696Z,71.81
2018-07-19T00:20:49.434Z,71.42
2018-07-19T00:23:18.225Z,70.95
2018-07-19T00:28:14.596Z,71.12
2018-07-19T00:30:43.338Z,70.13
2018-07-19T00:33:12.077Z,70.23
2018-07-19T00:35:40.900Z,69.82
2018-07-19T00:38:09.688Z,69.80
2018-07-19T00:40:38.409Z,69.08
2018-07-19T00:43:07.261Z,68.72
2018-07-19T00:45:35.991Z,69.92
2018-07-19T00:48:04.853Z,68.58
2018-07-19T00:50:33.651Z,69.89
2018-07-19T00:53:02.738Z,68.89
2018-07-19T00:55:31.461Z,69.18
2018-07-19T00:58:00.230Z,69.18
2018-07-19T01:00:29.019Z,68.27
2018-07-19T01:02:57.771Z,68.97
2018-07-19T01:05:26.498Z,68.11
2018-07-19T01:07:55.230Z,68.84
2018-07-19T01:10:24.001Z,67.73
2018-07-19T01:12:52.797Z,67.75
2018-07-19T01:15:21.544Z,69.05
2018-07-19T01:17:50.314Z,69.35
2018-07-19T01:20:19.105Z,70.29
2018-07-19T01:22:47.918Z,70.13
2018-07-19T01:25:16.985Z,71.05
2018-07-19T01:27:45.713Z,70.16
2018-07-19T01:30:14.474Z,70.47
2018-07-19T01:32:43.214Z,71.46
2018-07-19T01:35:11.958Z,70.63
2018-07-19T01:37:40.745Z,72.28
2018-07-19T01:40:09.464Z,72.18
2018-07-19T01:42:40.730Z,71.46
2018-07-19T01:45:10.203Z,70.39
2018-07-19T01:47:39.043Z,70.09
2018-07-19T01:50:08.958Z,73.08
2018-07-19T01:52:37.671Z,71.39
2018-07-19T01:55:06.713Z,70.90
2018-07-19T01:57:35.488Z,71.02
2018-07-19T02:00:04.973Z,71.56
2018-07-19T02:02:33.676Z,71.42
2018-07-19T02:05:02.435Z,71.35
2018-07-19T02:07:31.180Z,70.21
2018-07-19T02:09:59.896Z,70.90
2018-07-19T02:12:28.766Z,70.13
2018-07-19T02:14:57.492Z,69.82
2018-07-19T02:17:26.217Z,69.74
2018-07-19T02:19:54.954Z,70.18
2018-07-19T02:22:23.657Z,69.63
2018-07-19T02:24:52.374Z,68.79
2018-07-19T02:27:21.156Z,69.04
2018-07-19T02:29:49.880Z,69.70
2018-07-19T02:32:18.649Z,70.53
2018-07-19T02:34:47.387Z,69.90
2018-07-19T02:37:16.122Z,70.40
2018-07-19T02:39:44.981Z,70.37
2018-07-19T02:42:13.747Z,71.62
2018-07-19T02:44:42.552Z,71.84
2018-07-19T02:47:11.269Z,70.55
2018-07-19T02:49:40.005Z,71.32
2018-07-19T02:52:08.772Z,70.56
2018-07-19T02:54:37.513Z,70.14
2018-07-19T02:57:06.365Z,71.05
2018-07-19T02:59:35.126Z,71.15
2018-07-19T03:02:03.868Z,70.65
2018-07-19T03:04:32.592Z,71.37
2018-07-19T03:07:01.567Z,72.05
2018-07-19T03:09:30.513Z,70.70
2018-07-19T03:11:59.385Z,70.04
2018-07-19T03:14:28.290Z,70.17
2018-07-19T03:16:57.049Z,69.47
2018-07-19T03:19:25.762Z,70.08
2018-07-19T03:21:54.536Z,71.63
2018-07-19T03:24:23.270Z,69.90
2018-07-19T03:26:52.005Z,70.49
2018-07-19T03:29:20.756Z,71.22
2018-07-19T03:31:49.474Z,71.21
2018-07-19T03:34:19.170Z,70.74
2018-07-19T03:36:48.278Z,69.73
2018-07-19T03:39:17.118Z,70.56
2018-07-19T03:41:45.862Z,69.88
2018-07-19T03:44:14.610Z,69.36
2018-07-19T03:46:43.353Z,69.26
2018-07-19T03:49:12.267Z,69.06
2018-07-19T03:51:41.037Z,67.84
2018-07-19T03:54:09.804Z,68.21
2018-07-19T03:56:38.526Z,68.96
2018-07-19T03:59:07.268Z,67.62
2018-07-19T04:01:36.018Z,67.86
2018-07-19T04:04:04.754Z,68.59
2018-07-19T04:06:33.506Z,67.35
2018-07-19T04:09:02.259Z,66.90
2018-07-19T04:11:31.034Z,65.31
2018-07-19T04:13:59.780Z,65.24
2018-07-19T04:16:28.521Z,66.62
2018-07-19T04:18:57.437Z,66.00
2018-07-19T04:21:26.182Z,66.34
2018-07-19T04:23:54.909Z,66.47
2018-07-19T04:26:23.626Z,66.81
2018-07-19T04:28:52.299Z,65.36
2018-07-19T04:31:21.030Z,64.40
2018-07-19T04:33:49.724Z,65.67
2018-07-19T04:36:18.465Z,63.95
2018-07-19T04:38:47.165Z,65.46
2018-07-19T04:41:16.052Z,64.26
2018-07-19T04:43:44.813Z,63.19
2018-07-19T04:46:13.509Z,62.73
2018-07-19T04:48:42.293Z,64.18
2018-07-19T04:51:11.147Z,64.15
2018-07-19T04:53:39.856Z,63.26
2018-07-19T04:56:08.549Z,62.52
2018-07-19T04:58:37.380Z,62.62
2018-07-19T05:01:06.913Z,65.05
2018-07-19T05:03:35.638Z,63.29
2018-07-19T05:06:04.376Z,63.06
2018-07-19T05:08:33.114Z,64.29
2018-07-19T05:11:01.894Z,63.27
2018-07-19T05:13:30.726Z,62.84
2018-07-19T05:15:59.430Z,63.63
2018-07-19T05:18:28.170Z,63.54
2018-07-19T05:20:56.873Z,62.83
2018-07-19T05:23:25.628Z,64.11
2018-07-19T05:25:54.401Z,62.36
2018-07-19T05:28:23.160Z,61.86
2018-07-19T05:30:51.885Z,60.89
2018-07-19T05:33:20.612Z,60.78
2018-07-19T05:35:49.402Z,61.19
2018-07-19T05:38:18.199Z,62.21
2018-07-19T05:40:46.978Z,60.27
2018-07-19T05:43:15.767Z,61.15
2018-07-19T05:45:44.550Z,61.40
2018-07-19T05:48:13.249Z,61.22
2018-07-19T05:50:41.964Z,63.20
2018-07-19T05:53:10.644Z,62.92
2018-07-19T05:55:39.356Z,62.91
2018-07-19T05:58:08.114Z,61.92
2018-07-19T06:00:36.931Z,61.57
2018-07-19T06:03:05.870Z,62.08
2018-07-19T06:05:34.650Z,61.05
2018-07-19T06:08:03.353Z,60.21
2018-07-19T06:10:32.096Z,59.67
2018-07-19T06:13:00.861Z,60.25
2018-07-19T06:15:29.597Z,57.18
2018-07-19T06:17:58.314Z,57.05
2018-07-19T06:20:27.015Z,56.73
2018-07-19T06:22:55.745Z,55.83
2018-07-19T06:25:24.497Z,53.74
2018-07-19T06:27:53.426Z,48.43
2018-07-19T06:30:22.129Z,44.74
2018-07-19T06:32:50.862Z,42.16
2018-07-19T06:35:19.601Z,40.25
2018-07-19T06:37:48.333Z,41.35
2018-07-19T06:40:17.320Z,42.05
2018-07-19T06:42:46.051Z,38.46
2018-07-19T06:45:14.767Z,40.58
2018-07-19T06:47:43.685Z,41.09
2018-07-19T06:50:12.405Z,38.60
2018-07-19T06:52:41.213Z,38.01
2018-07-19T06:55:09.943Z,36.34
2018-07-19T06:57:38.645Z,34.02
2018-07-19T07:00:08.549Z,34.48
2018-07-19T07:02:37.357Z,34.18
2018-07-19T07:05:06.240Z,34.77
2018-07-19T07:07:34.993Z,32.61
2018-07-19T07:10:03.733Z,32.06
2018-07-19T07:12:32.521Z,31.59
2018-07-19T07:15:01.402Z,30.15
2018-07-19T07:17:30.105Z,31.51
2018-07-19T07:19:58.833Z,30.46
2018-07-19T07:22:27.539Z,32.23
2018-07-19T07:24:56.278Z,29.95
2018-07-19T07:27:24.991Z,29.96
2018-07-19T07:29:53.730Z,32.72
2018-07-19T07:32:22.469Z,32.10
2018-07-19T07:34:51.188Z,35.49
2018-07-19T07:37:19.929Z,38.60
2018-07-19T07:39:48.682Z,38.58
2018-07-19T07:42:17.481Z,40.83
2018-07-19T07:44:46.186Z,40.50
2018-07-19T07:47:14.910Z,40.60
2018-07-19T07:49:43.645Z,39.28
2018-07-19T07:52:12.378Z,34.78
2018-07-19T07:54:41.126Z,36.72
2018-07-19T07:57:10.318Z,39.87
2018-07-19T07:59:39.194Z,40.09
2018-07-19T08:02:07.974Z,42.26
2018-07-19T08:04:36.706Z,44.29
2018-07-19T08:07:05.442Z,44.08
2018-07-19T08:09:34.187Z,45.88
2018-07-19T08:12:02.911Z,44.64
2018-07-19T08:14:31.713Z,48.39
2018-07-19T08:17:00.705Z,46.48
2018-07-19T08:19:29.474Z,46.65
2018-07-19T08:21:58.203Z,45.26
2018-07-19T08:24:26.947Z,46.99
2018-07-19T08:26:55.745Z,47.89
2018-07-19T08:29:24.646Z,46.70
2018-07-19T08:31:53.450Z,48.45
2018-07-19T08:34:22.201Z,49.17
2018-07-19T08:36:50.924Z,48.50
2018-07-19T08:39:19.672Z,48.11
2018-07-19T08:41:48.411Z,47.13
2018-07-19T08:44:17.440Z,47.09
2018-07-19T08:46:46.161Z,47.29
2018-07-19T08:49:14.896Z,46.96
2018-07-19T08:51:43.686Z,48.60
2018-07-19T08:54:12.364Z,49.98
2018-07-19T08:56:41.139Z,49.00
2018-07-19T08:59:10.240Z,46.69
2018-07-19T09:01:39.060Z,47.42
2018-07-19T09:04:07.822Z,47.73
2018-07-19T09:06:36.581Z,47.53
2018-07-19T09:09:07.579Z,47.78
2018-07-19T09:11:36.312Z,46.34
2018-07-19T09:14:05.425Z,47.02
2018-07-19T09:16:34.139Z,44.87
2018-07-19T09:19:02.859Z,44.57
2018-07-19T09:21:31.748Z,44.84
2018-07-19T09:24:00.533Z,42.29
2018-07-19T09:26:29.455Z,38.49
2018-07-19T09:28:58.230Z,38.47
2018-07-19T09:31:26.973Z,38.18
2018-07-19T09:33:55.938Z,38.82
2018-07-19T09:36:24.671Z,38.87
2018-07-19T09:38:53.411Z,40.10
2018-07-19T09:41:22.125Z,40.63
2018-07-19T09:43:51.063Z,42.92
2018-07-19T09:46:20.198Z,45.16
2018-07-19T09:48:48.922Z,45.72
2018-07-19T09:51:17.665Z,47.52
2018-07-19T09:53:47.411Z,46.64
2018-07-19T09:56:16.166Z,45.80
2018-07-19T09:58:44.876Z,46.66
2018-07-19T10:01:18.685Z,45.79
2018-07-19T10:03:48.489Z,45.03
2018-07-19T10:06:17.427Z,44.65
2018-07-19T10:08:46.148Z,43.33
2018-07-19T10:11:15.101Z,43.83
2018-07-19T10:13:43.868Z,44.00
2018-07-19T10:16:12.586Z,43.00
2018-07-19T10:18:41.470Z,42.78
2018-07-19T10:21:10.180Z,38.80
2018-07-19T10:23:38.972Z,37.83
2018-07-19T10:26:07.673Z,38.81
2018-07-19T10:28:36.457Z,39.90
2018-07-19T10:31:05.156Z,40.77
2018-07-19T10:33:33.942Z,41.87
2018-07-19T10:36:02.714Z,41.08
2018-07-19T10:38:31.459Z,42.37
2018-07-19T10:41:00.238Z,43.04
2018-07-19T10:43:28.983Z,40.89
2018-07-19T10:45:57.724Z,41.25
2018-07-19T10:48:26.458Z,42.32
2018-07-19T10:50:55.178Z,42.40
2018-07-19T10:53:24.146Z,43.00
2018-07-19T10:55:52.862Z,42.37
2018-07-19T10:58:21.569Z,41.64
2018-07-19T11:00:50.311Z,43.73
2018-07-19T11:03:19.022Z,44.54
2018-07-19T11:05:47.762Z,42.57
2018-07-19T11:08:16.486Z,42.89
2018-07-19T11:10:45.214Z,41.98
2018-07-19T11:13:13.933Z,42.57
2018-07-19T11:15:42.664Z,42.00
2018-07-19T11:18:11.506Z,41.83
2018-07-19T11:20:40.290Z,40.96
2018-07-19T11:23:09.430Z,42.71
2018-07-19T11:25:38.406Z,42.34
2018-07-19T11:28:07.121Z,42.53
2018-07-19T11:30:35.902Z,42.49
2018-07-19T11:33:04.789Z,42.23
2018-07-19T11:35:33.504Z,43.07
2018-07-19T11:38:02.201Z,40.51
2018-07-19T11:40:30.929Z,38.66
2018-07-19T11:42:59.673Z,39.09
2018-07-19T11:45:28.412Z,41.76
2018-07-19T11:47:57.188Z,42.68
2018-07-19T11:50:25.929Z,42.85
2018-07-19T11:52:54.680Z,41.55
2018-07-19T11:55:23.524Z,44.01
2018-07-19T11:57:52.271Z,44.22
2018-07-19T12:00:21.032Z,44.27
2018-07-19T12:02:49.766Z,43.28
2018-07-19T12:05:18.525Z,43.27
2018-07-19T12:07:47.353Z,43.27
2018-07-19T12:10:16.152Z,40.63
2018-07-19T12:12:44.868Z,42.99
2018-07-19T12:15:13.723Z,44.56
2018-07-19T12:17:42.540Z,45.04
2018-07-19T12:20:11.308Z,43.64
2018-07-19T12:22:40.044Z,45.48
2018-07-19T12:25:08.914Z,46.25
2018-07-19T12:27:37.712Z,46.52
2018-07-19T12:30:06.793Z,46.33
2018-07-19T12:32:35.508Z,47.82
2018-07-19T12:35:04.209Z,48.36
2018-07-19T12:37:32.929Z,49.70
2018-07-19T12:40:01.692Z,47.99
2018-07-19T12:42:30.460Z,46.99
2018-07-19T12:44:59.190Z,46.60
2018-07-19T12:47:27.987Z,49.23
2018-07-19T12:49:56.702Z,46.56
2018-07-19T12:52:25.491Z,46.15
2018-07-19T12:54:54.379Z,48.87
2018-07-19T12:57:23.128Z,48.73
2018-07-19T12:59:51.816Z,48.03
2018-07-19T13:02:20.511Z,46.61
2018-07-19T13:04:49.278Z,47.24
2018-07-19T13:07:18.045Z,47.30
2018-07-19T13:09:46.769Z,47.40
2018-07-19T13:12:15.470Z,48.30
2018-07-19T13:14:44.281Z,47.26
2018-07-19T13:17:13.013Z,47.59
2018-07-19T13:19:41.710Z,47.84
2018-07-19T13:22:10.459Z,47.61
2018-07-19T13:24:39.157Z,47.36
2018-07-19T13:27:07.861Z,49.21
2018-07-19T13:29:37.556Z,48.25
2018-07-19T13:32:06.376Z,47.95
2018-07-19T13:34:35.124Z,47.76
2018-07-19T13:37:03.838Z,49.43
2018-07-19T13:39:32.594Z,47.83
2018-07-19T13:42:01.335Z,48.67
2018-07-19T13:44:30.046Z,50.51
2018-07-19T13:46:58.801Z,51.68
2018-07-19T13:49:27.497Z,50.93
2018-07-19T13:51:56.205Z,52.65
2018-07-19T13:54:35.845Z,51.76
2018-07-19T13:57:04.553Z,53.17
2018-07-19T13:59:33.285Z,52.93
2018-07-19T14:02:01.997Z,52.79
2018-07-19T14:04:30.881Z,52.49
2018-07-19T14:06:59.592Z,53.23
2018-07-19T14:09:28.305Z,50.93
2018-07-19T14:11:57.018Z,47.73
2018-07-19T14:14:25.882Z,48.12
2018-07-19T14:16:54.788Z,49.34
2018-07-19T14:19:23.507Z,46.86
2018-07-19T14:21:52.282Z,47.21
2018-07-19T14:24:21.089Z,47.40
2018-07-19T14:26:49.809Z,48.89
2018-07-19T14:29:18.528Z,48.30
2018-07-19T14:31:47.270Z,46.14
2018-07-19T14:34:16.009Z,46.83
2018-07-19T14:36:44.756Z,47.44
2018-07-19T14:39:14.111Z,48.84
2018-07-19T14:41:42.849Z,50.27
2018-07-19T14:44:11.628Z,49.24
2018-07-19T14:46:40.401Z,50.60
2018-07-19T14:49:09.162Z,50.70
2018-07-19T14:51:37.889Z,52.39
2018-07-19T14:54:06.702Z,50.34
2018-07-19T14:56:35.463Z,51.10
2018-07-19T14:59:04.190Z,51.97
2018-07-19T15:01:32.947Z,51.34
2018-07-19T15:04:01.684Z,52.38
2018-07-19T15:06:31.876Z,51.67
2018-07-19T15:09:04.042Z,53.13
2018-07-19T15:11:32.870Z,50.87
2018-07-19T15:14:01.674Z,51.13
2018-07-19T15:16:30.414Z,50.49
2018-07-19T15:18:59.150Z,52.77
2018-07-19T15:21:27.933Z,52.36
2018-07-19T15:23:56.713Z,53.51
2018-07-19T15:26:25.436Z,53.68
2018-07-19T15:28:54.177Z,53.36
2018-07-19T15:31:22.924Z,54.29
2018-07-19T15:33:51.689Z,56.41
2018-07-19T15:36:20.416Z,59.65
2018-07-19T15:38:49.158Z,60.67
2018-07-19T15:41:17.889Z,64.02
2018-07-19T15:43:46.605Z,70.24
2018-07-19T15:46:15.382Z,68.55
2018-07-19T15:48:44.105Z,75.45
2018-07-19T15:51:12.815Z,75.87
2018-07-19T15:53:41.525Z,74.70
2018-07-19T15:56:10.280Z,73.89
2018-07-19T15:58:39.015Z,72.98
2018-07-19T16:01:07.721Z,74.01
2018-07-19T16:03:36.446Z,72.66
2018-07-19T16:06:05.175Z,72.98
2018-07-19T16:08:34.152Z,67.78
2018-07-19T16:11:02.916Z,66.60
2018-07-19T16:13:31.679Z,67.24
2018-07-19T16:16:00.484Z,68.59
2018-07-19T16:18:29.340Z,68.49
2018-07-19T16:20:58.821Z,68.61
2018-07-19T16:23:27.676Z,67.55
2018-07-19T16:25:56.559Z,68.83
2018-07-19T16:28:25.685Z,68.13
2018-07-19T16:30:54.512Z,67.00
2018-07-19T16:33:23.296Z,66.06
2018-07-19T16:35:52.091Z,65.82
2018-07-19T16:38:20.917Z,62.41
2018-07-19T16:40:50.286Z,62.35
2018-07-19T16:43:19.292Z,63.70
2018-07-19T16:45:48.233Z,63.06
2018-07-19T16:48:17.060Z,61.85
2018-07-19T16:50:45.982Z,62.91
2018-07-19T16:53:14.716Z,65.12
2018-07-19T16:55:43.552Z,64.26
2018-07-19T16:58:12.301Z,63.64
2018-07-19T17:00:41.164Z,66.73
2018-07-19T17:03:10.037Z,66.37
2018-07-19T17:05:38.844Z,66.04
2018-07-19T17:08:07.742Z,66.56
2018-07-19T17:10:36.534Z,66.64
2018-07-19T17:13:05.361Z,66.89
2018-07-19T17:15:34.260Z,64.47
2018-07-19T17:18:03.042Z,65.99
2018-07-19T17:20:31.847Z,64.81
2018-07-19T17:23:00.610Z,66.26
2018-07-19T17:25:29.358Z,68.04
2018-07-19T17:27:58.112Z,70.27
2018-07-19T17:30:26.850Z,69.50
2018-07-19T17:32:55.677Z,67.71
2018-07-19T17:35:24.428Z,69.36
2018-07-19T17:37:53.163Z,69.04
2018-07-19T17:40:21.921Z,70.47
2018-07-19T17:42:50.677Z,71.71
2018-07-19T17:45:19.437Z,68.89
2018-07-19T17:47:48.241Z,69.74
2018-07-19T17:50:17.041Z,68.56
2018-07-19T17:52:45.791Z,69.49
2018-07-19T17:55:14.486Z,69.98
2018-07-19T17:57:43.272Z,69.16
2018-07-19T18:00:12.017Z,69.00
2018-07-19T18:02:40.743Z,70.04
2018-07-19T18:05:09.457Z,70.39
2018-07-19T18:07:38.200Z,69.87
2018-07-19T18:10:06.973Z,70.65
2018-07-19T18:12:35.678Z,71.29
2018-07-19T18:15:04.533Z,71.58
2018-07-19T18:17:33.303Z,71.09
2018-07-19T18:20:02.028Z,71.24
2018-07-19T18:22:30.758Z,72.40
2018-07-19T18:24:59.494Z,73.12
2018-07-19T18:27:28.275Z,73.04
2018-07-19T18:29:57.049Z,72.25
2018-07-19T18:32:25.803Z,70.76
2018-07-19T18:34:54.545Z,72.05
2018-07-19T18:37:23.291Z,71.99
2018-07-19T18:39:52.288Z,72.23
2018-07-19T18:42:21.057Z,71.74
2018-07-19T18:44:49.818Z,72.90
2018-07-19T18:47:18.520Z,72.10
2018-07-19T18:49:47.443Z,71.87
2018-07-19T18:52:16.195Z,72.70
2018-07-19T18:54:45.126Z,72.12
2018-07-19T18:57:13.878Z,73.71
2018-07-19T18:59:42.625Z,74.17
2018-07-19T19:02:11.343Z,75.35
2018-07-19T19:04:40.065Z,76.82
2018-07-19T19:07:08.821Z,76.43
2018-07-19T19:09:37.540Z,78.41
2018-07-19T19:12:06.478Z,81.29
2018-07-19T19:14:35.200Z,81.47
2018-07-19T19:17:03.926Z,82.00
2018-07-19T19:19:32.646Z,82.19
2018-07-19T19:22:01.398Z,83.46
2018-07-19T19:24:30.197Z,84.79
2018-07-19T19:26:59.160Z,84.86
2018-07-19T19:29:27.988Z,81.37
2018-07-19T19:31:56.735Z,81.66
2018-07-19T19:34:25.689Z,80.53
2018-07-19T19:36:54.425Z,79.99
2018-07-19T19:39:23.205Z,79.46
2018-07-19T19:41:51.958Z,78.28
2018-07-19T19:44:20.810Z,78.79
2018-07-19T19:46:49.591Z,78.22
2018-07-19T19:49:18.417Z,77.48
2018-07-19T19:51:47.213Z,77.04
2018-07-19T19:54:15.969Z,76.95
2018-07-19T19:56:49.208Z,74.95
2018-07-19T19:59:18.269Z,75.64
2018-07-19T20:01:47.270Z,75.71
2018-07-19T20:04:16.086Z,75.34
2018-07-19T20:06:45.033Z,74.90
2018-07-19T20:09:13.834Z,74.36
2018-07-19T20:11:42.613Z,73.07
2018-07-19T20:14:11.516Z,74.22
2018-07-19T20:16:40.269Z,74.27
2018-07-19T20:19:08.990Z,74.18
2018-07-19T20:21:39.380Z,73.63
2018-07-19T20:24:08.100Z,73.94
2018-07-19T20:26:36.849Z,73.32
2018-07-19T20:29:05.626Z,73.39
2018-07-19T20:31:34.369Z,73.34
2018-07-19T20:34:04.505Z,73.00
2018-07-19T20:36:33.285Z,73.04
2018-07-19T20:39:02.701Z,73.21
2018-07-19T20:41:32.299Z,72.74
2018-07-19T20:44:01.178Z,73.25
2018-07-19T20:46:30.228Z,72.50
2018-07-19T20:48:59.018Z,73.81
2018-07-19T20:51:27.890Z,73.14
2018-07-19T20:53:57.377Z,72.94
2018-07-19T20:56:26.086Z,73.22
2018-07-19T20:58:54.821Z,73.86
2018-07-19T21:01:23.541Z,74.20
2018-07-19T21:03:52.274Z,74.68
2018-07-19T21:06:20.984Z,74.86
2018-07-19T21:08:49.722Z,74.98
2018-07-19T21:11:18.697Z,76.32
2018-07-19T21:13:47.408Z,76.75
2018-07-19T21:16:16.256Z,78.85
2018-07-19T21:18:45.027Z,79.55
2018-07-19T21:21:13.724Z,82.64
2018-07-19T21:23:42.457Z,82.29
2018-07-19T21:26:11.166Z,83.24
2018-07-19T21:28:39.865Z,85.24
2018-07-19T21:31:08.569Z,84.96
2018-07-19T21:33:37.327Z,85.99
2018-07-19T21:36:06.273Z,88.00
2018-07-19T21:38:35.026Z,86.84
2018-07-19T21:41:03.827Z,86.95
2018-07-19T21:43:32.621Z,88.21
2018-07-19T21:46:01.338Z,91.20
2018-07-19T21:48:30.167Z,92.86
2018-07-19T21:50:58.895Z,93.78
2018-07-19T21:53:27.600Z,93.77
2018-07-19T21:55:56.478Z,94.55
2018-07-19T21:58:25.194Z,93.99
2018-07-19T22:00:58.981Z,95.92
2018-07-19T22:03:27.709Z,96.72
2018-07-19T22:05:56.448Z,95.94
2018-07-19T22:08:25.165Z,97.41
2018-07-19T22:10:53.890Z,95.87
2018-07-19T22:13:22.662Z,97.47
2018-07-19T22:15:51.425Z,97.72
2018-07-19T22:18:20.230Z,98.20
2018-07-19T22:20:48.951Z,97.45
2018-07-19T22:23:17.691Z,98.67
2018-07-19T22:25:46.482Z,98.82
2018-07-19T22:28:15.231Z,98.81
2018-07-19T22:30:44.014Z,99.02
2018-07-19T22:33:12.750Z,99.47
2018-07-19T22:35:41.498Z,98.70
2018-07-19T22:38:10.279Z,99.24
2018-07-19T22:40:39.051Z,99.27
2018-07-19T22:43:07.797Z,99.65
2018-07-19T22:45:36.585Z,100.00
2018-07-19T22:48:05.412Z,99.59
2018-07-19T22:50:34.176Z,97.75
2018-07-19T22:53:03.085Z,98.89
2018-07-19T22:55:31.847Z,99.78
2018-07-19T22:58:00.624Z,98.60
2018-07-19T23:00:29.420Z,98.69
2018-07-19T23:02:58.345Z,99.55
2018-07-19T23:05:27.077Z,99.80
2018-07-19T23:07:55.805Z,99.85
2018-07-19T23:10:24.509Z,99.01
2018-07-19T23:12:53.693Z,100.00
2018-07-19T23:15:22.442Z,100.00
2018-07-19T23:17:51.188Z,100.00
2018-07-19T23:20:19.892Z,100.00
2018-07-19T23:22:58.301Z,100.00
2018-07-19T23:25:27.030Z,100.00
2018-07-19T23:27:56.614Z,97.85
2018-07-19T23:30:33.929Z,98.85
2018-07-19T23:33:02.764Z,98.79
2018-07-19T23:35:37.153Z,98.43
2018-07-19T23:38:08.853Z,98.85
2018-07-19T23:40:40.401Z,97.14
2018-07-19T23:43:14.717Z,96.00
2018-07-19T23:46:01.445Z,97.19
2018-07-19T23:48:30.267Z,96.91
2018-07-19T23:50:58.993Z,96.99
2018-07-19T23:53:27.722Z,93.78
2018-07-19T23:55:56.486Z,92.92
2018-07-19T23:58:25.391Z,93.09
